Time;durP1;ratioP1;P1;durP2;ratioP2;P2;SDS_P1;SDS_P2;PMS_P1;PMS_P2;Temp;Humidity;BMP_temperature;BMP_pressure;BME280_temperature;BME280_humidity;BME280_pressure;Samples;Min_cycle;Max_cycle;Signal;HPM_P1;HPM_P2
2023/04/15 00:01:51;;;;;;;5.00;2.50;;;;;;;8.91;76.81;98529.06;105556;1259;62027;-23
2023/04/15 00:04:20;;;;;;;4.90;3.10;;;;;;;8.92;76.70;98534.81;105307;1260;75407;-23
2023/04/15 00:06:51;;;;;;;4.70;3.10;;;;;;;8.76;76.97;98529.77;105547;1257;75122;-23
2023/04/15 00:09:20;;;;;;;2.60;2.10;;;;;;;8.56;77.81;98532.59;105507;1255;73522;-23
2023/04/15 00:11:49;;;;;;;2.30;1.90;;;;;;;8.77;77.73;98527.05;105471;1256;61679;-23
2023/04/15 00:14:20;;;;;;;4.70;2.70;;;;;;;8.99;76.82;98528.38;105412;1257;61265;-23
2023/04/15 00:16:54;;;;;;;4.20;3.00;;;;;;;8.93;76.57;98530.27;105383;1254;75405;-23
2023/04/15 00:19:24;;;;;;;2.30;1.90;;;;;;;8.74;77.01;98525.10;105473;1254;75629;-23
2023/04/15 00:21:52;;;;;;;8.50;2.40;;;;;;;8.54;77.88;98533.64;105669;1254;74020;-23
2023/04/15 00:24:22;;;;;;;3.30;2.60;;;;;;;8.53;78.13;98526.25;105686;1260;63226;-23
2023/04/15 00:26:50;;;;;;;4.60;3.20;;;;;;;8.80;77.04;98518.67;105681;1255;61610;-23
2023/04/15 00:29:19;;;;;;;4.50;2.90;;;;;;;8.79;76.65;98520.50;105479;1258;75628;-23
2023/04/15 00:31:47;;;;;;;2.90;2.10;;;;;;;8.64;77.17;98525.34;105515;1257;75932;-23
2023/04/15 00:34:16;;;;;;;6.10;3.00;;;;;;;8.50;77.81;98519.18;105347;1256;74321;-23
2023/04/15 00:36:47;;;;;;;3.50;2.60;;;;;;;8.49;78.30;98521.84;105639;1257;61605;-23
2023/04/15 00:39:16;;;;;;;5.20;3.80;;;;;;;8.84;77.14;98524.64;105643;1259;61589;-23
2023/04/15 00:41:45;;;;;;;5.50;3.00;;;;;;;8.88;76.43;98526.52;105604;1257;74310;-23
2023/04/15 00:44:14;;;;;;;4.30;2.50;;;;;;;8.73;76.78;98525.70;105628;1259;75843;-23
2023/04/15 00:46:43;;;;;;;2.00;1.80;;;;;;;8.53;77.53;98524.51;105583;1257;73209;-23
2023/04/15 00:49:12;;;;;;;3.90;2.60;;;;;;;8.51;78.02;98524.34;105642;1257;62591;-23
2023/04/15 00:51:42;;;;;;;6.40;3.10;;;;;;;8.78;76.95;98532.84;105499;1262;61649;-24
2023/04/15 00:54:11;;;;;;;3.50;2.10;;;;;;;8.85;76.43;98534.55;105698;1258;75389;-23
2023/04/15 00:56:41;;;;;;;3.30;2.70;;;;;;;8.65;76.83;98528.41;105636;1259;74529;-23
2023/04/15 00:59:10;;;;;;;4.90;3.50;;;;;;;8.47;77.38;98535.90;105559;1260;74294;-23
2023/04/15 01:01:38;;;;;;;4.80;2.90;;;;;;;8.41;78.03;98534.28;105582;1260;63563;-24
2023/04/15 01:04:10;;;;;;;3.90;2.90;;;;;;;8.72;76.79;98533.20;105381;1255;61540;-24
2023/04/15 01:06:39;;;;;;;3.20;2.60;;;;;;;8.74;76.25;98535.11;105527;1258;75128;-23
2023/04/15 01:09:07;;;;;;;4.40;2.70;;;;;;;8.61;76.58;98531.86;105396;1263;75850;-23
2023/04/15 01:11:40;;;;;;;3.20;2.70;;;;;;;8.42;77.18;98538.88;105614;1257;73785;-23
2023/04/15 01:14:09;;;;;;;3.30;2.70;;;;;;;8.43;77.52;98528.59;105573;1259;63734;-23
2023/04/15 01:16:38;;;;;;;2.80;2.60;;;;;;;8.85;75.90;98533.48;105624;1256;61783;-24
2023/04/15 01:19:07;;;;;;;4.20;2.20;;;;;;;8.95;75.12;98535.98;105616;1260;74335;-23
2023/04/15 01:21:39;;;;;;;3.00;2.70;;;;;;;8.77;75.38;98532.80;105282;1257;75707;-23
2023/04/15 01:24:09;;;;;;;4.50;2.70;;;;;;;8.53;76.05;98537.14;105609;1256;74218;-23
2023/04/15 01:26:38;;;;;;;3.90;2.50;;;;;;;8.31;77.06;98539.55;105519;1257;61860;-23
2023/04/15 01:29:09;;;;;;;3.50;2.70;;;;;;;8.47;77.10;98543.84;105205;1255;61135;-24
2023/04/15 01:31:37;;;;;;;6.50;2.90;;;;;;;8.70;76.02;98538.76;105633;1258;75284;-23
2023/04/15 01:34:07;;;;;;;3.20;2.30;;;;;;;8.67;75.91;98541.42;105529;1258;75787;-24
2023/04/15 01:36:36;;;;;;;4.50;3.10;;;;;;;8.45;76.60;98534.65;105563;1263;74223;-23
2023/04/15 01:39:07;;;;;;;4.30;3.00;;;;;;;8.31;77.23;98542.88;105520;1260;63513;-23
2023/04/15 01:41:36;;;;;;;4.10;3.10;;;;;;;8.57;77.06;98540.29;105264;1262;61890;-23
2023/04/15 01:44:05;;;;;;;5.00;3.50;;;;;;;8.78;75.61;98536.66;105609;1258;75388;-23
2023/04/15 01:46:35;;;;;;;5.30;3.90;;;;;;;8.62;76.05;98534.02;105587;1257;75128;-23
2023/04/15 01:49:05;;;;;;;3.30;2.70;;;;;;;8.49;76.50;98541.77;105532;1255;74247;-23
2023/04/15 01:51:33;;;;;;;5.00;3.90;;;;;;;8.32;77.33;98539.53;105239;1255;61126;-23
2023/04/15 01:54:02;;;;;;;4.90;3.00;;;;;;;8.51;77.03;98543.90;105606;1258;62362;-23
2023/04/15 01:56:32;;;;;;;5.20;3.10;;;;;;;8.69;76.25;98544.36;105657;1257;75610;-23
2023/04/15 01:59:02;;;;;;;4.60;2.80;;;;;;;8.61;76.50;98546.21;105364;1256;75108;-23
2023/04/15 02:01:31;;;;;;;5.00;2.70;;;;;;;8.42;77.14;98544.71;105427;1262;75177;-23
2023/04/15 02:04:01;;;;;;;3.70;2.50;;;;;;;8.34;77.88;98547.83;105613;1256;63263;-23
2023/04/15 02:06:32;;;;;;;4.40;2.60;;;;;;;8.73;76.78;98537.45;105582;1260;61052;-23
2023/04/15 02:09:03;;;;;;;5.90;2.70;;;;;;;8.84;75.74;98529.64;105604;1257;74863;-24
2023/04/15 02:11:36;;;;;;;5.50;3.20;;;;;;;8.70;76.04;98527.65;105637;1257;75850;-24
2023/04/15 02:14:05;;;;;;;3.20;2.50;;;;;;;8.46;76.55;98533.34;105614;1257;74454;-24
2023/04/15 02:16:34;;;;;;;4.90;3.40;;;;;;;8.28;77.64;98536.52;105661;1256;61451;-24
2023/04/15 02:19:03;;;;;;;4.00;3.10;;;;;;;8.48;77.14;98525.42;105693;1259;61048;-24
2023/04/15 02:21:34;;;;;;;5.80;3.10;;;;;;;8.78;75.37;98515.54;103812;1261;2446428;-24
2023/04/15 02:24:03;;;;;;;2.90;2.40;;;;;;;8.65;75.71;98523.19;105550;1257;75779;-24
2023/04/15 02:26:36;;;;;;;6.70;3.10;;;;;;;8.42;76.63;98528.50;105550;1259;74099;-23
2023/04/15 02:29:05;;;;;;;4.80;3.10;;;;;;;8.29;77.29;98527.92;105622;1257;61153;-23
2023/04/15 02:31:39;;;;;;;3.10;2.80;;;;;;;8.53;77.16;98529.14;105615;1255;61664;-23
2023/04/15 02:34:12;;;;;;;4.30;3.00;;;;;;;8.72;76.08;98526.64;105553;1257;75408;-24
2023/04/15 02:36:47;;;;;;;5.40;2.90;;;;;;;8.60;76.15;98525.38;105397;1260;75759;-24
2023/04/15 02:39:17;;;;;;;5.50;3.50;;;;;;;8.39;76.89;98527.84;105420;1257;73155;-24
2023/04/15 02:41:51;;;;;;;4.90;2.20;;;;;;;8.31;77.41;98529.74;105540;1257;63269;-23
2023/04/15 02:44:20;;;;;;;5.90;4.00;;;;;;;8.63;76.86;98529.10;105323;1262;62022;-24
2023/04/15 02:46:51;;;;;;;4.60;3.10;;;;;;;8.78;75.99;98529.92;105403;1263;75232;-23
2023/04/15 02:49:24;;;;;;;;;;;;;;;8.63;76.39;98533.94;105579;1259;75694;-23
2023/04/15 02:51:52;;;;;;;4.80;3.60;;;;;;;8.45;77.04;98531.53;105621;1260;73173;-23
2023/04/15 02:54:24;;;;;;;3.70;2.50;;;;;;;8.29;77.97;98534.23;105413;1261;63511;-23
2023/04/15 02:56:54;;;;;;;3.10;2.30;;;;;;;8.56;77.40;98531.58;105531;1257;61039;-24
2023/04/15 02:59:23;;;;;;;2.90;2.30;;;;;;;8.66;76.75;98540.81;105633;1257;74213;-24
2023/04/15 03:01:51;;;;;;;3.60;2.90;;;;;;;8.55;77.19;98538.38;105555;1258;75870;-23
2023/04/15 03:04:20;;;;;;;4.90;2.70;;;;;;;8.37;77.79;98534.79;105481;1257;74235;-23
2023/04/15 03:06:50;;;;;;;3.10;2.30;;;;;;;8.37;78.27;98534.80;105311;1257;62496;-24
2023/04/15 03:09:19;;;;;;;4.50;3.10;;;;;;;8.61;77.33;98534.38;105616;1255;61647;-24
2023/04/15 03:11:49;;;;;;;3.40;2.60;;;;;;;8.60;77.09;98532.41;105640;1257;74402;-24
2023/04/15 03:14:21;;;;;;;2.40;1.90;;;;;;;8.51;77.43;98535.74;105621;1257;75842;-24
2023/04/15 03:16:51;;;;;;;3.90;2.00;;;;;;;8.35;77.97;98535.77;105554;1257;74274;-23
2023/04/15 03:19:19;;;;;;;3.30;2.60;;;;;;;8.52;78.05;98538.09;105600;1263;61253;-23
2023/04/15 03:21:48;;;;;;;3.70;2.20;;;;;;;8.92;76.62;98534.02;105394;1262;61820;-24
2023/04/15 03:24:17;;;;;;;4.60;2.90;;;;;;;8.95;76.06;98536.00;105533;1256;75421;-23
2023/04/15 03:26:46;;;;;;;6.80;2.40;;;;;;;8.76;76.55;98532.66;105420;1263;75878;-23
2023/04/15 03:29:17;;;;;;;5.60;2.40;;;;;;;8.50;77.17;98540.81;105657;1257;74858;-23
2023/04/15 03:31:48;;;;;;;1.80;1.60;;;;;;;8.38;78.29;98551.14;105573;1260;63598;-23
2023/04/15 03:34:17;;;;;;;2.20;2.00;;;;;;;8.71;77.81;98553.85;105613;1261;61550;-24
2023/04/15 03:36:45;;;;;;;2.70;1.50;;;;;;;8.85;77.18;98550.61;105594;1258;75245;-24
2023/04/15 03:39:15;;;;;;;2.70;1.80;;;;;;;8.61;77.93;98561.60;105552;1257;75620;-24
2023/04/15 03:41:43;;;;;;;2.90;2.10;;;;;;;8.39;78.96;98561.77;105587;1260;73225;-23
2023/04/15 03:44:13;;;;;;;4.10;1.70;;;;;;;8.19;79.93;98560.52;105258;1256;61901;-23
2023/04/15 03:46:41;;;;;;;4.20;1.60;;;;;;;8.37;80.20;98555.55;105582;1259;61640;-24
2023/04/15 03:49:10;;;;;;;2.20;1.80;;;;;;;8.61;78.52;98550.70;105625;1257;75632;-24
2023/04/15 03:51:39;;;;;;;2.10;1.50;;;;;;;8.41;78.73;98561.80;105538;1258;74798;-23
2023/04/15 03:54:07;;;;;;;2.10;1.50;;;;;;;8.18;79.53;98560.34;105565;1257;72960;-23
2023/04/15 03:56:35;;;;;;;3.10;1.80;;;;;;;8.02;80.11;98560.15;105456;1257;63237;-23
2023/04/15 03:59:04;;;;;;;2.00;1.40;;;;;;;8.22;79.74;98561.39;105286;1260;61583;-23
2023/04/15 04:01:33;;;;;;;2.70;1.80;;;;;;;8.41;78.70;98566.91;105569;1259;75176;-23
2023/04/15 04:04:02;;;;;;;2.00;1.80;;;;;;;8.27;78.94;98567.39;105485;1258;74651;-24
2023/04/15 04:06:31;;;;;;;1.70;1.30;;;;;;;7.99;79.80;98566.98;105587;1258;73931;-24
2023/04/15 04:09:00;;;;;;;2.30;2.00;;;;;;;7.86;80.43;98570.36;105629;1257;63229;-23
2023/04/15 04:11:29;;;;;;;2.30;1.60;;;;;;;8.12;79.38;98567.52;105478;1263;61587;-23
2023/04/15 04:14:01;;;;;;;1.50;1.40;;;;;;;8.08;79.29;98578.00;105432;1258;75501;-24
2023/04/15 04:16:30;;;;;;;2.20;1.40;;;;;;;7.89;79.94;98578.27;105559;1257;75621;-24
2023/04/15 04:18:58;;;;;;;2.40;1.30;;;;;;;7.70;80.49;98585.62;105419;1263;73954;-24
2023/04/15 04:21:28;;;;;;;6.20;1.80;;;;;;;7.92;80.44;98573.35;105667;1260;62419;-24
2023/04/15 04:23:57;;;;;;;2.40;1.50;;;;;;;8.04;79.24;98572.44;105661;1263;61874;-23
2023/04/15 04:26:26;;;;;;;3.00;1.20;;;;;;;7.90;79.40;98573.16;105561;1258;75474;-24
2023/04/15 04:28:55;;;;;;;2.90;1.60;;;;;;;7.71;79.65;98566.23;105594;1259;75574;-23
2023/04/15 04:31:23;;;;;;;1.10;1.00;;;;;;;7.70;79.99;98560.73;105665;1257;74395;-24
2023/04/15 04:33:53;;;;;;;3.10;1.50;;;;;;;7.97;78.49;98567.09;105657;1257;61641;-23
2023/04/15 04:36:22;;;;;;;1.40;1.10;;;;;;;7.96;78.26;98563.20;105684;1258;61607;-23
2023/04/15 04:38:51;;;;;;;1.50;1.30;;;;;;;7.80;78.43;98564.27;105626;1257;75533;-24
2023/04/15 04:41:20;;;;;;;2.00;1.30;;;;;;;7.62;78.57;98571.04;105645;1260;75842;-23
2023/04/15 04:43:48;;;;;;;1.40;1.10;;;;;;;7.83;78.67;98564.91;105525;1260;73272;-23
2023/04/15 04:46:18;;;;;;;2.60;1.40;;;;;;;8.16;77.16;98561.99;105424;1260;61930;-23
2023/04/15 04:48:48;;;;;;;3.00;1.40;;;;;;;8.09;76.29;98553.92;105502;1256;61724;-23
2023/04/15 04:51:17;;;;;;;1.90;1.60;;;;;;;7.89;76.55;98551.53;105371;1260;74676;-24
2023/04/15 04:53:49;;;;;;;1.30;1.20;;;;;;;7.70;76.98;98553.48;105442;1255;75827;-23
2023/04/15 04:56:18;;;;;;;0.80;0.70;;;;;;;7.54;77.16;98549.29;105632;1258;74205;-23
2023/04/15 04:58:48;;;;;;;2.50;1.30;;;;;;;7.79;76.72;98551.78;105584;1258;61195;-23
2023/04/15 05:01:17;;;;;;;2.10;1.40;;;;;;;8.01;75.96;98548.52;105652;1259;61747;-23
2023/04/15 05:03:46;;;;;;;2.70;1.50;;;;;;;7.96;75.84;98549.29;105692;1257;75380;-24
2023/04/15 05:06:16;;;;;;;2.30;1.60;;;;;;;7.78;75.24;98541.48;105634;1263;75941;-23
2023/04/15 05:08:45;;;;;;;3.20;1.70;;;;;;;7.60;76.11;98544.89;105537;1257;73936;-23
2023/04/15 05:11:14;;;;;;;2.40;1.50;;;;;;;7.79;75.74;98548.95;105312;1257;61138;-23
2023/04/15 05:13:43;;;;;;;5.70;1.60;;;;;;;8.13;74.81;98554.11;105595;1259;61697;-23
2023/04/15 05:16:15;;;;;;;3.00;1.40;;;;;;;8.12;73.47;98552.10;105509;1256;75484;-24
2023/04/15 05:18:44;;;;;;;1.50;1.20;;;;;;;7.97;73.98;98553.83;105697;1258;76271;-23
2023/04/15 05:21:13;;;;;;;1.20;1.10;;;;;;;7.78;74.06;98552.15;105510;1260;74194;-24
2023/04/15 05:23:41;;;;;;;2.00;1.30;;;;;;;7.67;74.85;98552.33;105462;1258;61936;-24
2023/04/15 05:26:15;;;;;;;1.40;1.00;;;;;;;8.04;74.39;98549.47;105407;1259;61083;-23
2023/04/15 05:28:46;;;;;;;1.70;1.20;;;;;;;8.47;72.27;98549.42;105229;1263;74549;-24
2023/04/15 05:31:15;;;;;;;2.60;1.60;;;;;;;8.48;71.50;98552.40;105470;1259;75813;-23
2023/04/15 05:33:46;;;;;;;1.00;0.90;;;;;;;8.37;72.02;98555.85;105581;1257;72996;-23
2023/04/15 05:36:15;;;;;;;1.80;1.60;;;;;;;8.21;72.61;98561.06;105657;1260;61202;-23
2023/04/15 05:38:43;;;;;;;2.00;1.60;;;;;;;8.04;73.11;98552.61;105669;1260;61661;-23
2023/04/15 05:41:14;;;;;;;2.50;1.70;;;;;;;7.88;73.63;98549.48;105624;1256;75387;-25
2023/04/15 05:43:48;;;;;;;1.90;1.30;;;;;;;8.17;72.97;98551.87;105667;1257;74846;-24
2023/04/15 05:46:18;;;;;;;2.00;1.50;;;;;;;8.38;71.99;98549.58;105638;1260;73948;-23
2023/04/15 05:48:47;;;;;;;1.40;1.20;;;;;;;8.28;71.61;98552.77;105683;1260;61803;-23
2023/04/15 05:51:15;;;;;;;1.30;1.00;;;;;;;8.09;72.52;98562.17;105590;1262;62002;-24
2023/04/15 05:53:44;;;;;;;2.50;1.60;;;;;;;7.93;73.24;98557.75;105430;1258;75135;-23
2023/04/15 05:56:13;;;;;;;1.50;1.30;;;;;;;7.82;73.91;98564.34;105496;1260;75754;-23
2023/04/15 05:58:41;;;;;;;2.30;1.90;;;;;;;8.17;73.42;98555.55;105289;1258;74269;-23
2023/04/15 06:01:10;;;;;;;1.30;1.20;;;;;;;8.47;71.23;98545.04;105263;1260;61242;-23
2023/04/15 06:03:39;;;;;;;2.60;1.50;;;;;;;8.34;71.01;98552.48;105501;1260;61726;-23
2023/04/15 06:06:08;;;;;;;2.30;1.40;;;;;;;8.19;71.74;98549.48;105492;1260;75352;-23
2023/04/15 06:08:37;;;;;;;2.30;1.70;;;;;;;7.97;72.39;98559.34;105499;1260;76219;-23
2023/04/15 06:11:06;;;;;;;1.90;1.10;;;;;;;7.81;72.55;98557.79;105264;1261;74200;-23
2023/04/15 06:13:35;;;;;;;1.20;1.10;;;;;;;7.82;73.33;98565.87;105286;1255;63468;-23
2023/04/15 06:16:03;;;;;;;2.60;1.50;;;;;;;8.27;72.11;98569.30;105581;1268;61154;-23
2023/04/15 06:18:32;;;;;;;1.90;1.30;;;;;;;8.35;71.07;98565.73;105557;1258;75222;-23
2023/04/15 06:21:01;;;;;;;2.30;1.20;;;;;;;8.14;71.73;98566.17;105658;1263;75602;-23
2023/04/15 06:23:29;;;;;;;3.70;1.50;;;;;;;7.98;72.37;98570.84;105642;1260;73932;-23
2023/04/15 06:26:02;;;;;;;2.60;1.70;;;;;;;7.78;72.60;98566.66;105645;1258;61853;-23
2023/04/15 06:28:31;;;;;;;1.10;1.00;;;;;;;7.60;73.28;98564.80;105579;1256;61078;-23
2023/04/15 06:31:00;;;;;;;3.40;2.40;;;;;;;7.90;73.25;98569.94;105633;1260;73382;-23
2023/04/15 06:33:29;;;;;;;1.60;1.50;;;;;;;8.05;72.00;98572.05;105375;1260;75544;-23
2023/04/15 06:35:57;;;;;;;2.50;1.60;;;;;;;7.94;72.20;98580.36;105107;1257;74219;-23
2023/04/15 06:38:26;;;;;;;2.60;1.70;;;;;;;7.78;72.37;98583.80;105484;1258;61717;-23
2023/04/15 06:40:55;;;;;;;1.90;1.30;;;;;;;7.59;73.23;98582.79;105461;1265;61882;-22
2023/04/15 06:43:23;;;;;;;2.00;1.40;;;;;;;7.49;73.96;98587.01;105341;1257;75450;-23
2023/04/15 06:45:51;;;;;;;2.20;1.40;;;;;;;7.78;73.45;98588.45;105508;1257;74816;-23
2023/04/15 06:48:21;;;;;;;2.30;1.80;;;;;;;8.02;72.63;98595.24;105458;1254;74360;-23
2023/04/15 06:50:49;;;;;;;3.80;1.70;;;;;;;7.96;72.42;98603.55;105484;1259;61192;-23
2023/04/15 06:53:22;;;;;;;1.90;1.60;;;;;;;7.79;73.21;98605.13;105536;1256;61849;-23
2023/04/15 06:55:51;;;;;;;2.90;1.70;;;;;;;7.54;73.79;98592.35;105557;1260;74335;-23
2023/04/15 06:58:20;;;;;;;2.10;1.50;;;;;;;7.40;74.27;98600.70;105374;1261;75363;-23
2023/04/15 07:00:51;;;;;;;2.40;1.30;;;;;;;7.63;73.87;98594.23;105623;1258;74132;-23
2023/04/15 07:03:21;;;;;;;1.70;1.60;;;;;;;7.78;73.58;98603.13;105162;1262;61478;-23
2023/04/15 07:05:49;;;;;;;5.20;1.50;;;;;;;7.72;73.81;98608.45;105520;1260;61904;-23
2023/04/15 07:08:24;;;;;;;2.50;1.80;;;;;;;7.49;75.43;98619.31;105593;1257;75154;-23
2023/04/15 07:10:56;;;;;;;2.20;1.90;;;;;;;7.37;76.57;98623.02;105650;1263;75807;-23
2023/04/15 07:13:24;;;;;;;3.00;1.50;;;;;;;7.60;75.78;98619.00;105687;1260;73988;-23
2023/04/15 07:15:53;;;;;;;2.40;1.80;;;;;;;7.69;75.79;98623.18;105633;1255;62011;-23
2023/04/15 07:18:22;;;;;;;2.50;1.70;;;;;;;7.52;76.43;98620.86;105606;1260;62536;-23
2023/04/15 07:20:51;;;;;;;1.80;1.60;;;;;;;7.33;77.20;98620.16;105606;1258;75345;-23
2023/04/15 07:23:20;;;;;;;3.00;1.60;;;;;;;7.39;77.67;98618.88;105500;1260;75850;-23
2023/04/15 07:25:48;;;;;;;3.10;2.40;;;;;;;7.60;76.81;98621.83;105376;1261;73996;-23
2023/04/15 07:28:17;;;;;;;2.50;1.80;;;;;;;7.50;77.53;98634.78;105488;1260;61866;-23
2023/04/15 07:30:45;;;;;;;2.40;1.60;;;;;;;7.30;78.64;98639.92;105448;1260;61864;-23
2023/04/15 07:33:19;;;;;;;2.80;1.70;;;;;;;7.23;79.80;98637.36;105337;1258;75261;-23
2023/04/15 07:35:49;;;;;;;4.50;1.80;;;;;;;7.60;79.11;98640.30;105423;1260;74634;-23
2023/04/15 07:38:18;;;;;;;1.90;1.60;;;;;;;7.62;78.39;98623.90;105542;1262;74173;-23
2023/04/15 07:40:51;;;;;;;4.40;2.50;;;;;;;7.39;78.98;98642.37;105570;1257;61246;-23
2023/04/15 07:43:20;;;;;;;2.80;1.40;;;;;;;7.13;81.26;98647.16;105538;1259;61891;-23
2023/04/15 07:45:48;;;;;;;3.60;2.20;;;;;;;7.34;80.77;98645.34;105514;1259;75240;-23
2023/04/15 07:48:17;;;;;;;4.00;1.80;;;;;;;7.50;79.52;98636.73;105503;1259;75853;-24
2023/04/15 07:50:47;;;;;;;3.80;2.50;;;;;;;7.39;80.05;98636.50;105251;1261;74246;-22
2023/04/15 07:53:17;;;;;;;3.00;1.60;;;;;;;7.14;80.85;98639.56;105613;1258;61959;-22
2023/04/15 07:55:45;;;;;;;1.70;1.30;;;;;;;7.17;82.07;98649.17;105532;1267;61832;-22
2023/04/15 07:58:16;;;;;;;2.10;1.60;;;;;;;7.50;80.80;98650.67;105576;1257;75204;-22
2023/04/15 08:00:47;;;;;;;3.80;2.10;;;;;;;7.50;80.27;98646.52;105263;1260;75855;-23
2023/04/15 08:03:16;;;;;;;3.30;2.60;;;;;;;7.28;80.90;98649.19;105470;1259;74221;-22
2023/04/15 08:05:46;;;;;;;1.40;1.30;;;;;;;7.03;82.06;98659.66;105468;1259;61541;-23
2023/04/15 08:08:17;;;;;;;3.40;1.70;;;;;;;7.22;82.24;98662.45;105261;1260;61680;-22
2023/04/15 08:10:47;;;;;;;2.30;1.60;;;;;;;7.39;81.60;98660.32;105398;1260;75341;-22
2023/04/15 08:13:22;;;;;;;4.20;2.70;;;;;;;7.23;81.85;98660.41;105453;1262;75775;-22
2023/04/15 08:16:14;;;;;;;;;;;;;;;6.96;83.18;98652.36;105364;1263;74265;-23
2023/04/15 08:30:36;;;;;;;3.10;1.80;;;;;;;6.49;84.92;98659.69;103532;1280;615676;-20
2023/04/15 08:33:04;;;;;;;2.50;2.10;;;;;;;7.03;84.25;98659.48;105209;1264;61681;-20
2023/04/15 08:35:31;;;;;;;2.70;2.10;;;;;;;7.20;82.76;98658.91;105171;1268;61774;-20
2023/04/15 08:37:59;;;;;;;2.60;2.10;;;;;;;7.04;82.85;98664.56;105160;1264;73387;-20
2023/04/15 08:40:26;;;;;;;2.00;1.50;;;;;;;6.83;83.52;98662.64;105156;1264;75603;-20
2023/04/15 08:42:58;;;;;;;4.40;2.40;;;;;;;7.00;83.36;98657.77;103319;1263;2173520;-20
2023/04/15 08:45:27;;;;;;;2.10;1.50;;;;;;;7.30;81.89;98660.64;105185;1263;61786;-20
2023/04/15 08:47:55;;;;;;;2.00;1.60;;;;;;;7.26;82.08;98664.54;105166;1268;61741;-19
2023/04/15 08:50:23;;;;;;;1.60;1.50;;;;;;;7.08;82.41;98666.39;105257;1263;73827;-20
2023/04/15 08:52:54;;;;;;;1.90;1.70;;;;;;;6.87;83.51;98668.23;105229;1266;75816;-20
2023/04/15 08:55:26;;;;;;;1.90;1.30;;;;;;;7.19;83.89;98672.30;105255;1262;73783;-20
2023/04/15 08:57:55;;;;;;;2.70;1.70;;;;;;;7.43;82.59;98675.05;104873;1264;61699;-20
2023/04/15 09:00:25;;;;;;;2.80;2.00;;;;;;;7.27;82.06;98665.55;104849;1268;61699;-20
2023/04/15 09:02:53;;;;;;;4.90;1.80;;;;;;;6.99;82.64;98664.80;105214;1263;74437;-20
2023/04/15 09:05:21;;;;;;;2.10;1.10;;;;;;;7.03;83.25;98664.31;105145;1263;75835;-22
2023/04/15 09:07:52;;;;;;;2.60;1.60;;;;;;;7.41;82.63;98664.16;105154;1268;74169;-20
2023/04/15 09:10:19;;;;;;;2.70;2.10;;;;;;;7.42;81.84;98655.11;105209;1264;61629;-20
2023/04/15 09:18:05;;;;;;;2.00;1.50;;;;;;;6.88;84.19;98646.59;103582;1278;615515;-21
2023/04/15 09:20:41;;;;;;;2.60;1.90;;;;;;;7.29;82.62;98644.63;104931;1264;61032;-22
2023/04/15 09:23:12;;;;;;;2.00;1.60;;;;;;;7.39;81.74;98649.77;104879;1269;61624;-21
2023/04/15 09:25:43;;;;;;;3.80;1.20;;;;;;;7.30;82.30;98658.23;104899;1264;72632;-22
2023/04/15 09:28:10;;;;;;;1.30;1.00;;;;;;;7.12;82.88;98663.00;105221;1266;75923;-22
2023/04/15 09:30:37;;;;;;;2.20;1.40;;;;;;;7.20;82.67;98659.64;103685;1260;2152253;-22
2023/04/15 09:33:07;;;;;;;2.90;1.70;;;;;;;7.31;81.70;98651.77;105261;1261;61957;-22
2023/04/15 09:35:36;;;;;;;2.70;1.80;;;;;;;7.09;82.25;98643.70;105266;1261;61160;-22
2023/04/15 09:38:05;;;;;;;1.60;1.30;;;;;;;6.86;82.93;98645.48;105241;1261;73761;-22
2023/04/15 09:40:41;;;;;;;2.20;1.40;;;;;;;7.06;82.73;98641.80;105192;1269;74938;-22
2023/04/15 09:43:11;;;;;;;2.40;1.50;;;;;;;7.26;81.26;98641.75;105206;1260;74175;-22
2023/04/15 09:45:46;;;;;;;1.90;1.40;;;;;;;7.09;81.07;98654.74;105188;1261;61832;-22
2023/04/15 09:48:16;;;;;;;1.60;1.50;;;;;;;6.80;81.76;98641.09;104937;1269;61762;-22
2023/04/15 09:50:43;;;;;;;1.60;1.30;;;;;;;6.75;82.37;98644.24;105258;1261;74401;-22
2023/04/15 09:53:15;;;;;;;1.90;1.70;;;;;;;7.05;81.99;98632.79;105231;1266;75790;-22
2023/04/15 09:55:45;;;;;;;2.70;1.90;;;;;;;7.06;81.23;98627.30;104976;1261;74011;-22
2023/04/15 09:58:45;;;;;;;2.90;2.00;;;;;;;6.86;81.88;98632.95;105032;1261;61163;-22
2023/04/15 10:01:12;;;;;;;2.20;1.50;;;;;;;6.75;82.80;98637.27;105216;1268;63116;-22
2023/04/15 10:03:41;;;;;;;3.40;2.10;;;;;;;7.07;81.23;98632.77;105234;1266;74466;-22
2023/04/15 10:06:08;;;;;;;1.30;0.90;;;;;;;7.00;80.78;98644.33;104942;1268;75781;-22
2023/04/15 10:08:36;;;;;;;2.60;1.90;;;;;;;6.81;81.23;98645.73;104873;1266;74171;-22
2023/04/15 10:11:03;;;;;;;1.60;1.40;;;;;;;6.61;81.81;98655.77;105088;1261;63057;-22
2023/04/15 10:13:33;;;;;;;2.20;1.70;;;;;;;6.79;81.72;98658.23;105141;1268;61804;-22
2023/04/15 10:16:11;;;;;;;1.90;1.60;;;;;;;6.95;81.05;98659.50;105207;1264;74521;-22
2023/04/15 10:18:41;;;;;;;2.20;1.90;;;;;;;6.81;81.22;98662.64;104900;1269;75919;-22
2023/04/15 10:21:08;;;;;;;3.30;1.70;;;;;;;6.57;81.73;98664.98;105497;1258;73219;-22
2023/04/15 10:23:36;;;;;;;2.30;2.10;;;;;;;6.72;81.48;98670.52;105622;1257;61753;-22
2023/04/15 10:26:03;;;;;;;4.30;1.90;;;;;;;6.90;80.87;98668.20;105429;1263;61652;-22
2023/04/15 10:28:31;;;;;;;10.30;2.30;;;;;;;6.77;81.15;98674.65;105587;1257;74443;-22
2023/04/15 10:30:58;;;;;;;2.00;1.50;;;;;;;6.64;81.43;98680.23;105627;1257;75871;-23
2023/04/15 10:33:25;;;;;;;3.70;2.30;;;;;;;6.74;81.86;98681.23;105581;1257;74060;-22
2023/04/15 10:35:54;;;;;;;2.10;1.70;;;;;;;7.04;80.67;98689.01;105480;1255;61806;-23
2023/04/15 10:38:42;;;;;;;2.40;1.50;;;;;;;6.98;80.44;98705.61;105644;1261;61173;-23
2023/04/15 10:41:19;;;;;;;2.10;1.50;;;;;;;6.71;80.93;98714.59;105342;1257;74744;-23
2023/04/15 10:44:15;;;;;;;3.00;1.90;;;;;;;6.59;81.93;98721.75;105311;1257;75782;-23
2023/04/15 10:46:43;;;;;;;1.90;1.30;;;;;;;7.11;80.80;98722.75;105329;1257;74308;-22
2023/04/15 10:49:16;;;;;;;1.80;1.60;;;;;;;7.17;79.84;98728.56;105269;1257;61610;-22
2023/04/15 10:51:50;;;;;;;2.00;1.40;;;;;;;7.01;80.00;98725.91;105441;1262;61921;-23
2023/04/15 10:54:23;;;;;;;1.30;1.10;;;;;;;6.74;81.16;98713.15;105205;1257;73378;-23
2023/04/15 10:56:51;;;;;;;1.60;1.20;;;;;;;6.78;81.68;98718.38;105331;1257;76065;-22
2023/04/15 10:59:19;;;;;;;2.50;1.30;;;;;;;7.13;80.91;98714.00;105274;1257;73854;-22
2023/04/15 11:01:58;;;;;;;1.80;1.50;;;;;;;7.14;80.13;98709.96;105217;1257;61972;-22
2023/04/15 11:04:56;;;;;;;1.70;1.30;;;;;;;6.97;80.59;98710.28;105393;1262;61738;-22
2023/04/15 11:07:42;;;;;;;1.60;1.30;;;;;;;6.66;81.10;98703.23;105558;1257;72420;-22
2023/04/15 11:10:12;;;;;;;1.50;1.10;;;;;;;6.89;80.83;98705.89;105552;1257;76139;-22
2023/04/15 11:12:40;;;;;;;1.70;1.20;;;;;;;6.98;79.87;98706.25;105397;1257;74224;-22
2023/04/15 11:15:27;;;;;;;1.70;1.10;;;;;;;6.83;80.46;98709.41;105432;1256;61598;-23
2023/04/15 11:17:55;;;;;;;2.40;1.20;;;;;;;6.60;81.49;98706.67;105172;1257;62007;-22
2023/04/15 11:20:23;;;;;;;2.10;1.10;;;;;;;6.85;81.53;98703.56;105160;1257;74670;-23
2023/04/15 11:22:51;;;;;;;2.00;1.40;;;;;;;7.15;80.31;98706.13;105187;1262;75744;-22
2023/04/15 11:25:36;;;;;;;2.20;1.30;;;;;;;7.05;80.53;98709.42;105211;1257;73928;-22
2023/04/15 11:28:04;;;;;;;1.20;0.90;;;;;;;6.76;80.77;98697.45;105376;1257;61840;-22
2023/04/15 11:30:33;;;;;;;2.60;1.50;;;;;;;6.46;81.95;98704.75;105606;1262;62146;-22
2023/04/15 11:33:04;;;;;;;2.30;1.30;;;;;;;6.62;82.54;98701.52;105444;1262;74001;-22
2023/04/15 11:35:32;;;;;;;1.20;1.00;;;;;;;6.88;81.30;98700.91;105349;1254;74710;-22
2023/04/15 11:38:15;;;;;;;2.30;1.50;;;;;;;6.78;81.23;98696.33;105487;1257;74040;-22
2023/04/15 11:40:43;;;;;;;0.60;0.60;;;;;;;6.52;81.95;98697.95;105405;1257;61619;-22
2023/04/15 11:43:19;;;;;;;1.20;1.10;;;;;;;6.53;83.43;98699.28;105548;1260;62040;-22
2023/04/15 11:45:58;;;;;;;1.40;0.70;;;;;;;6.96;82.10;98698.98;105298;1262;74585;-23
2023/04/15 11:48:35;;;;;;;3.10;1.10;;;;;;;6.95;81.91;98695.62;105699;1261;75864;-22
2023/04/15 11:51:04;;;;;;;1.20;1.10;;;;;;;6.74;82.45;98697.43;105593;1254;74101;-22
2023/04/15 11:53:39;;;;;;;0.90;0.80;;;;;;;6.57;83.66;98700.70;105676;1254;62355;-22
2023/04/15 11:56:08;;;;;;;1.40;0.90;;;;;;;6.90;83.41;98701.30;105641;1261;62364;-22
2023/04/15 11:58:38;;;;;;;2.30;1.10;;;;;;;6.93;82.41;98702.30;105533;1258;72432;-22
2023/04/15 12:01:06;;;;;;;1.30;1.10;;;;;;;6.73;82.44;98704.63;105662;1257;75774;-22
2023/04/15 12:17:47;;;;;;;1.20;0.90;;;;;;;5.93;86.54;98706.45;103547;1286;614452;-23
2023/04/15 12:20:25;;;;;;;1.90;1.30;;;;;;;6.41;86.04;98714.08;104875;1264;61903;-23